Accueil
METAR-TAF:

METAR-TAF

Aéroports :

Aéroport de Newquay Cornouailles

Newquay Cornwall, Angleterre

latitude: 50-26N, longitude: 005-00W, altitude: 119 m

Observation

Le bulletin a été fait il y a 11 minutes, à 17:20 UTC
Vent 6 kt de est
Température 7°C
Humidité 87%
Pression 1027 hPa
Visibilité 10 km ou plus
Quelques nuages à une hauteur de 1800 ft

METAR: EGHQ 011720Z 10006KT 9999 FEW018 07/05 Q1027

Heure: 17:31 (17:31 UTC)

Prévision

Le bulletin a été fait il y a 3 heures et 34 minutes, à 13:57 UTC
Prévision valable du 01 à 15 UTC au 01 à 24 UTC
Vent 8 kt de sud/sud-est
Visibilité 10 km ou plus
Quelques nuages à une hauteur de 2500 ft

TAF: EGHQ 011357Z 0115/0124 15008KT 9999 FEW025

Observations et prévisions météorologiques de plus de 4000 aéroports (messages METAR et TAF).

Les stations disponibles sont représentées par des disques jaunes et rouges sur la carte.

Passer la souris dessus pour voir le nom de la station.

Cliquer dessus pour voir les observations et prévisions météorologiques.

Pour changer de carte: cliquez sur les boutons verts avec une croix noire pour zoomer, sur le bouton vert avec un tiret pour effectuer un zoom arrière, ou sur les flèches vertes pour les cartes adjacentes.


METAR-TAF: